Airfield :







YOU CAN JOIN US ON...

 
LOGIN :

Register | Disclaimer

   EN    FR    IT 

 









Legend :    VFR   Marginal VFR   IFR   Intensive IFR   Very Intensive IFR
Visi :
Ceiling :
>= 8 km
>= 3000ft
5 to 8 km
1000 to 3000 ft
1500m to 5 km
500 to 1000 ft
800 to 1500m
200 to 500 ft
< 800m
< 200 ft
Symbols :   Thunderstorms  Fog  Heavy snow  Heavy precipitations  Wind > 20 kt






- Airport Elevation : 13 ft
- IATA code : SXM


TNCM - Princess Juliana Int.

CURRENT METAR :
  • 271000Z 05004KT 340V130 9999 FEW022 24/17 Q1016 NOSIG

EXPIRED METARs :
  • 270900Z 05005KT 030V090 9999 FEW022 23/18 Q1015
  • 270800Z 06007KT 020V080 9999 FEW022 24/18 Q1015

TAF TNCM
Valid from the 27 at 06:00 until the 28 at 06:00 UTC


270520Z 2706/2806 04008KT P6SM FEW017
FM271400 08012KT P6SM FEW020 SCT035
FM272100 06009KT P6SM FEW030 SCT035



MET'MAP, your aeronautical weather chart ! - Copyright ORBIFLY December 2007 - Disclaimer

ORBIFLY MET'MAP TEAM :

Programming & Development : Alexandra Zaïnal
Concept & original design : Baudouin d'Aumeries
Assistance for programming : Marc-Olivier Méhu
Technical & hardware support : Manuel Goepfert

Contact : metmap@orbifly.com




SOURCES & CREDITS :

   NOAA